sensor_id;sensor_type;location;lat;lon;timestamp;P1;durP1;ratioP1;P2;durP2;ratioP2
5674;SDS011;2860;54.284;10.158;2023-03-19T00:02:11;89.28;;;46.22;;
5674;SDS011;2860;54.284;10.158;2023-03-19T00:04:37;103.13;;;51.53;;
5674;SDS011;2860;54.284;10.158;2023-03-19T00:07:03;106.68;;;52.30;;
5674;SDS011;2860;54.284;10.158;2023-03-19T00:09:28;94.70;;;48.50;;
5674;SDS011;2860;54.284;10.158;2023-03-19T00:11:54;107.72;;;50.20;;
5674;SDS011;2860;54.284;10.158;2023-03-19T00:14:20;109.18;;;51.70;;
5674;SDS011;2860;54.284;10.158;2023-03-19T00:16:46;92.80;;;49.60;;
5674;SDS011;2860;54.284;10.158;2023-03-19T00:19:11;105.88;;;48.60;;
5674;SDS011;2860;54.284;10.158;2023-03-19T00:21:37;86.65;;;48.33;;
5674;SDS011;2860;54.284;10.158;2023-03-19T00:24:02;85.18;;;46.17;;
5674;SDS011;2860;54.284;10.158;2023-03-19T00:26:29;91.82;;;49.53;;
5674;SDS011;2860;54.284;10.158;2023-03-19T00:28:58;91.85;;;48.38;;
5674;SDS011;2860;54.284;10.158;2023-03-19T00:31:25;92.07;;;49.38;;
5674;SDS011;2860;54.284;10.158;2023-03-19T00:33:52;89.57;;;45.90;;
5674;SDS011;2860;54.284;10.158;2023-03-19T00:36:18;87.68;;;45.03;;
5674;SDS011;2860;54.284;10.158;2023-03-19T00:38:45;78.15;;;43.63;;
5674;SDS011;2860;54.284;10.158;2023-03-19T00:41:11;81.60;;;45.50;;
5674;SDS011;2860;54.284;10.158;2023-03-19T00:43:37;80.22;;;45.75;;
5674;SDS011;2860;54.284;10.158;2023-03-19T00:46:04;82.45;;;44.75;;
5674;SDS011;2860;54.284;10.158;2023-03-19T00:48:30;89.22;;;46.00;;
5674;SDS011;2860;54.284;10.158;2023-03-19T00:50:55;83.82;;;46.17;;
5674;SDS011;2860;54.284;10.158;2023-03-19T00:53:27;80.93;;;45.70;;
5674;SDS011;2860;54.284;10.158;2023-03-19T00:55:52;84.22;;;44.50;;
5674;SDS011;2860;54.284;10.158;2023-03-19T00:58:18;90.28;;;46.60;;
5674;SDS011;2860;54.284;10.158;2023-03-19T01:00:43;80.20;;;43.35;;
5674;SDS011;2860;54.284;10.158;2023-03-19T01:03:09;87.35;;;45.90;;
5674;SDS011;2860;54.284;10.158;2023-03-19T01:05:35;84.28;;;47.20;;
5674;SDS011;2860;54.284;10.158;2023-03-19T01:08:00;101.28;;;48.15;;
5674;SDS011;2860;54.284;10.158;2023-03-19T01:10:26;81.63;;;46.80;;
5674;SDS011;2860;54.284;10.158;2023-03-19T01:12:52;99.05;;;46.80;;
5674;SDS011;2860;54.284;10.158;2023-03-19T01:15:17;107.22;;;51.25;;
5674;SDS011;2860;54.284;10.158;2023-03-19T01:17:43;105.53;;;48.35;;
5674;SDS011;2860;54.284;10.158;2023-03-19T01:20:10;119.70;;;52.17;;
5674;SDS011;2860;54.284;10.158;2023-03-19T01:22:42;111.80;;;52.72;;
5674;SDS011;2860;54.284;10.158;2023-03-19T01:25:09;115.15;;;52.33;;
5674;SDS011;2860;54.284;10.158;2023-03-19T01:27:36;109.47;;;51.80;;
5674;SDS011;2860;54.284;10.158;2023-03-19T01:30:02;116.95;;;52.08;;
5674;SDS011;2860;54.284;10.158;2023-03-19T01:32:28;98.85;;;47.97;;
5674;SDS011;2860;54.284;10.158;2023-03-19T01:34:53;103.38;;;49.22;;
5674;SDS011;2860;54.284;10.158;2023-03-19T01:37:19;78.75;;;45.35;;
5674;SDS011;2860;54.284;10.158;2023-03-19T01:39:45;88.50;;;48.10;;
5674;SDS011;2860;54.284;10.158;2023-03-19T01:42:11;95.47;;;47.47;;
5674;SDS011;2860;54.284;10.158;2023-03-19T01:44:37;75.60;;;42.20;;
5674;SDS011;2860;54.284;10.158;2023-03-19T01:47:13;86.32;;;45.90;;
5674;SDS011;2860;54.284;10.158;2023-03-19T01:49:41;98.13;;;45.67;;
5674;SDS011;2860;54.284;10.158;2023-03-19T01:52:11;92.78;;;46.25;;
5674;SDS011;2860;54.284;10.158;2023-03-19T01:54:39;101.00;;;47.95;;
5674;SDS011;2860;54.284;10.158;2023-03-19T01:57:06;92.65;;;46.72;;
5674;SDS011;2860;54.284;10.158;2023-03-19T01:59:35;97.97;;;48.10;;
5674;SDS011;2860;54.284;10.158;2023-03-19T02:02:08;92.68;;;46.00;;
5674;SDS011;2860;54.284;10.158;2023-03-19T02:04:40;102.90;;;47.63;;
5674;SDS011;2860;54.284;10.158;2023-03-19T02:07:07;112.50;;;48.97;;
5674;SDS011;2860;54.284;10.158;2023-03-19T02:09:34;105.90;;;46.85;;
5674;SDS011;2860;54.284;10.158;2023-03-19T02:12:00;106.38;;;47.60;;
5674;SDS011;2860;54.284;10.158;2023-03-19T02:14:26;116.28;;;48.40;;
5674;SDS011;2860;54.284;10.158;2023-03-19T02:16:52;108.03;;;48.30;;
5674;SDS011;2860;54.284;10.158;2023-03-19T02:19:30;102.72;;;47.40;;
5674;SDS011;2860;54.284;10.158;2023-03-19T02:22:07;101.70;;;46.78;;
5674;SDS011;2860;54.284;10.158;2023-03-19T02:24:37;104.70;;;47.90;;
5674;SDS011;2860;54.284;10.158;2023-03-19T02:27:12;96.50;;;47.40;;
5674;SDS011;2860;54.284;10.158;2023-03-19T02:29:38;115.75;;;52.03;;
5674;SDS011;2860;54.284;10.158;2023-03-19T02:32:03;101.72;;;50.30;;
5674;SDS011;2860;54.284;10.158;2023-03-19T02:34:31;112.35;;;48.28;;
5674;SDS011;2860;54.284;10.158;2023-03-19T02:37:04;101.07;;;47.90;;
5674;SDS011;2860;54.284;10.158;2023-03-19T02:39:39;110.03;;;48.65;;
5674;SDS011;2860;54.284;10.158;2023-03-19T02:42:13;99.80;;;47.40;;
5674;SDS011;2860;54.284;10.158;2023-03-19T02:44:41;109.75;;;50.90;;
5674;SDS011;2860;54.284;10.158;2023-03-19T02:47:07;125.57;;;52.58;;
5674;SDS011;2860;54.284;10.158;2023-03-19T02:52:44;123.82;;;49.13;;
5674;SDS011;2860;54.284;10.158;2023-03-19T02:55:09;104.80;;;50.00;;
5674;SDS011;2860;54.284;10.158;2023-03-19T02:57:35;103.55;;;49.28;;
5674;SDS011;2860;54.284;10.158;2023-03-19T03:00:01;95.75;;;46.70;;
5674;SDS011;2860;54.284;10.158;2023-03-19T03:02:28;118.40;;;50.83;;
5674;SDS011;2860;54.284;10.158;2023-03-19T03:04:55;119.43;;;50.70;;
5674;SDS011;2860;54.284;10.158;2023-03-19T03:07:20;136.57;;;54.97;;
5674;SDS011;2860;54.284;10.158;2023-03-19T03:09:46;116.20;;;52.90;;
5674;SDS011;2860;54.284;10.158;2023-03-19T03:12:12;118.68;;;50.90;;
5674;SDS011;2860;54.284;10.158;2023-03-19T03:14:38;128.82;;;52.30;;
5674;SDS011;2860;54.284;10.158;2023-03-19T03:17:04;138.48;;;53.75;;
5674;SDS011;2860;54.284;10.158;2023-03-19T03:19:30;128.43;;;51.97;;
5674;SDS011;2860;54.284;10.158;2023-03-19T03:21:55;128.27;;;52.40;;
5674;SDS011;2860;54.284;10.158;2023-03-19T03:24:22;124.50;;;53.22;;
5674;SDS011;2860;54.284;10.158;2023-03-19T03:26:48;149.98;;;55.75;;
5674;SDS011;2860;54.284;10.158;2023-03-19T03:29:13;129.20;;;51.60;;
5674;SDS011;2860;54.284;10.158;2023-03-19T03:31:39;138.85;;;54.65;;
5674;SDS011;2860;54.284;10.158;2023-03-19T03:34:05;125.78;;;51.20;;
5674;SDS011;2860;54.284;10.158;2023-03-19T03:36:31;136.60;;;54.72;;
5674;SDS011;2860;54.284;10.158;2023-03-19T03:38:56;123.30;;;53.03;;
5674;SDS011;2860;54.284;10.158;2023-03-19T03:41:22;137.75;;;51.78;;
5674;SDS011;2860;54.284;10.158;2023-03-19T03:43:48;136.93;;;54.28;;
5674;SDS011;2860;54.284;10.158;2023-03-19T03:46:13;143.00;;;54.80;;
5674;SDS011;2860;54.284;10.158;2023-03-19T03:48:39;133.93;;;53.55;;
5674;SDS011;2860;54.284;10.158;2023-03-19T03:51:04;138.30;;;55.05;;
5674;SDS011;2860;54.284;10.158;2023-03-19T03:53:30;130.70;;;52.35;;
5674;SDS011;2860;54.284;10.158;2023-03-19T03:55:56;139.95;;;54.38;;
5674;SDS011;2860;54.284;10.158;2023-03-19T03:58:21;127.45;;;52.70;;
5674;SDS011;2860;54.284;10.158;2023-03-19T04:00:48;130.35;;;53.63;;
5674;SDS011;2860;54.284;10.158;2023-03-19T04:03:13;136.35;;;53.20;;
5674;SDS011;2860;54.284;10.158;2023-03-19T04:05:39;136.85;;;49.97;;
5674;SDS011;2860;54.284;10.158;2023-03-19T04:08:05;131.60;;;51.75;;
5674;SDS011;2860;54.284;10.158;2023-03-19T04:10:31;113.03;;;50.80;;
5674;SDS011;2860;54.284;10.158;2023-03-19T04:12:59;131.00;;;52.03;;
5674;SDS011;2860;54.284;10.158;2023-03-19T04:15:25;121.97;;;50.88;;
5674;SDS011;2860;54.284;10.158;2023-03-19T04:17:50;116.15;;;49.85;;
5674;SDS011;2860;54.284;10.158;2023-03-19T04:20:16;121.50;;;49.65;;
5674;SDS011;2860;54.284;10.158;2023-03-19T04:22:42;106.82;;;48.78;;
5674;SDS011;2860;54.284;10.158;2023-03-19T04:25:08;113.45;;;47.75;;
5674;SDS011;2860;54.284;10.158;2023-03-19T04:27:34;112.65;;;48.90;;
5674;SDS011;2860;54.284;10.158;2023-03-19T04:29:59;105.45;;;46.92;;
5674;SDS011;2860;54.284;10.158;2023-03-19T04:32:25;107.93;;;47.05;;
5674;SDS011;2860;54.284;10.158;2023-03-19T04:34:51;104.13;;;44.92;;
5674;SDS011;2860;54.284;10.158;2023-03-19T04:37:16;110.05;;;47.97;;
5674;SDS011;2860;54.284;10.158;2023-03-19T04:39:42;111.00;;;46.38;;
5674;SDS011;2860;54.284;10.158;2023-03-19T04:42:08;90.57;;;45.55;;
5674;SDS011;2860;54.284;10.158;2023-03-19T04:44:35;96.72;;;43.67;;
5674;SDS011;2860;54.284;10.158;2023-03-19T04:47:01;98.90;;;43.63;;
5674;SDS011;2860;54.284;10.158;2023-03-19T04:49:27;100.32;;;45.85;;
5674;SDS011;2860;54.284;10.158;2023-03-19T04:51:53;99.55;;;45.92;;
5674;SDS011;2860;54.284;10.158;2023-03-19T04:54:18;92.82;;;44.97;;
5674;SDS011;2860;54.284;10.158;2023-03-19T04:56:44;104.03;;;45.42;;
5674;SDS011;2860;54.284;10.158;2023-03-19T04:59:10;103.13;;;43.65;;
5674;SDS011;2860;54.284;10.158;2023-03-19T05:01:35;102.38;;;42.50;;
5674;SDS011;2860;54.284;10.158;2023-03-19T05:04:01;99.55;;;45.30;;
5674;SDS011;2860;54.284;10.158;2023-03-19T05:06:27;101.80;;;45.53;;
5674;SDS011;2860;54.284;10.158;2023-03-19T05:08:53;95.35;;;43.47;;
5674;SDS011;2860;54.284;10.158;2023-03-19T05:11:18;96.90;;;43.97;;
5674;SDS011;2860;54.284;10.158;2023-03-19T05:13:44;110.00;;;45.53;;
5674;SDS011;2860;54.284;10.158;2023-03-19T05:16:10;118.25;;;45.38;;
5674;SDS011;2860;54.284;10.158;2023-03-19T05:18:37;107.75;;;45.13;;
5674;SDS011;2860;54.284;10.158;2023-03-19T05:21:03;111.53;;;45.38;;
5674;SDS011;2860;54.284;10.158;2023-03-19T05:23:28;111.88;;;44.00;;
5674;SDS011;2860;54.284;10.158;2023-03-19T05:25:56;105.55;;;44.22;;
5674;SDS011;2860;54.284;10.158;2023-03-19T05:28:22;90.38;;;42.83;;
5674;SDS011;2860;54.284;10.158;2023-03-19T05:30:48;105.53;;;45.38;;
5674;SDS011;2860;54.284;10.158;2023-03-19T05:33:13;107.68;;;45.08;;
5674;SDS011;2860;54.284;10.158;2023-03-19T05:35:39;117.68;;;43.53;;
5674;SDS011;2860;54.284;10.158;2023-03-19T05:38:04;117.47;;;46.15;;
5674;SDS011;2860;54.284;10.158;2023-03-19T05:40:30;106.63;;;44.72;;
5674;SDS011;2860;54.284;10.158;2023-03-19T05:42:57;102.70;;;42.80;;
5674;SDS011;2860;54.284;10.158;2023-03-19T05:45:23;105.03;;;44.75;;
5674;SDS011;2860;54.284;10.158;2023-03-19T05:47:48;108.75;;;43.75;;
5674;SDS011;2860;54.284;10.158;2023-03-19T05:50:14;105.43;;;45.47;;
5674;SDS011;2860;54.284;10.158;2023-03-19T05:52:40;91.80;;;41.33;;
5674;SDS011;2860;54.284;10.158;2023-03-19T05:55:06;92.68;;;43.03;;
5674;SDS011;2860;54.284;10.158;2023-03-19T05:57:32;104.82;;;43.78;;
5674;SDS011;2860;54.284;10.158;2023-03-19T05:59:57;93.65;;;41.15;;
5674;SDS011;2860;54.284;10.158;2023-03-19T06:02:23;97.60;;;40.30;;
5674;SDS011;2860;54.284;10.158;2023-03-19T06:04:49;97.43;;;39.35;;
5674;SDS011;2860;54.284;10.158;2023-03-19T06:07:15;92.97;;;37.75;;
5674;SDS011;2860;54.284;10.158;2023-03-19T06:09:40;95.57;;;40.40;;
5674;SDS011;2860;54.284;10.158;2023-03-19T06:12:06;92.95;;;41.30;;
5674;SDS011;2860;54.284;10.158;2023-03-19T06:14:32;90.82;;;39.85;;
5674;SDS011;2860;54.284;10.158;2023-03-19T06:16:58;82.30;;;37.75;;
5674;SDS011;2860;54.284;10.158;2023-03-19T06:19:23;81.88;;;37.15;;
5674;SDS011;2860;54.284;10.158;2023-03-19T06:21:50;79.85;;;38.30;;
5674;SDS011;2860;54.284;10.158;2023-03-19T06:24:16;82.78;;;36.53;;
5674;SDS011;2860;54.284;10.158;2023-03-19T06:26:41;78.63;;;36.25;;
5674;SDS011;2860;54.284;10.158;2023-03-19T06:29:07;70.32;;;34.58;;
5674;SDS011;2860;54.284;10.158;2023-03-19T06:31:32;68.47;;;35.58;;
5674;SDS011;2860;54.284;10.158;2023-03-19T06:33:58;69.88;;;35.03;;
5674;SDS011;2860;54.284;10.158;2023-03-19T06:36:24;64.25;;;32.38;;
5674;SDS011;2860;54.284;10.158;2023-03-19T06:38:50;60.35;;;31.75;;
5674;SDS011;2860;54.284;10.158;2023-03-19T06:41:15;55.15;;;29.65;;
5674;SDS011;2860;54.284;10.158;2023-03-19T06:43:41;47.28;;;28.05;;
5674;SDS011;2860;54.284;10.158;2023-03-19T06:46:07;50.08;;;28.15;;
5674;SDS011;2860;54.284;10.158;2023-03-19T06:48:33;48.92;;;27.42;;
5674;SDS011;2860;54.284;10.158;2023-03-19T06:50:59;48.03;;;27.40;;
5674;SDS011;2860;54.284;10.158;2023-03-19T06:53:25;42.47;;;26.42;;
5674;SDS011;2860;54.284;10.158;2023-03-19T06:55:51;54.95;;;29.30;;
5674;SDS011;2860;54.284;10.158;2023-03-19T06:58:17;53.05;;;28.80;;
5674;SDS011;2860;54.284;10.158;2023-03-19T07:00:42;53.08;;;30.58;;
5674;SDS011;2860;54.284;10.158;2023-03-19T07:03:08;88.80;;;44.63;;
5674;SDS011;2860;54.284;10.158;2023-03-19T07:05:34;73.28;;;36.22;;
5674;SDS011;2860;54.284;10.158;2023-03-19T07:08:00;72.20;;;34.33;;
5674;SDS011;2860;54.284;10.158;2023-03-19T07:10:26;70.50;;;34.00;;
5674;SDS011;2860;54.284;10.158;2023-03-19T07:12:51;55.60;;;31.10;;
5674;SDS011;2860;54.284;10.158;2023-03-19T07:15:17;64.95;;;34.67;;
5674;SDS011;2860;54.284;10.158;2023-03-19T07:17:45;62.97;;;35.67;;
5674;SDS011;2860;54.284;10.158;2023-03-19T07:20:11;60.30;;;33.92;;
5674;SDS011;2860;54.284;10.158;2023-03-19T07:22:37;62.65;;;35.75;;
5674;SDS011;2860;54.284;10.158;2023-03-19T07:25:03;58.35;;;36.45;;
5674;SDS011;2860;54.284;10.158;2023-03-19T07:27:29;59.88;;;33.75;;
5674;SDS011;2860;54.284;10.158;2023-03-19T07:29:54;53.60;;;32.50;;
5674;SDS011;2860;54.284;10.158;2023-03-19T07:32:20;49.33;;;32.30;;
5674;SDS011;2860;54.284;10.158;2023-03-19T07:34:47;43.88;;;29.50;;
5674;SDS011;2860;54.284;10.158;2023-03-19T07:37:13;45.10;;;31.38;;
5674;SDS011;2860;54.284;10.158;2023-03-19T07:39:38;44.50;;;31.13;;
5674;SDS011;2860;54.284;10.158;2023-03-19T07:42:04;44.42;;;33.33;;
5674;SDS011;2860;54.284;10.158;2023-03-19T07:44:29;43.65;;;31.15;;
5674;SDS011;2860;54.284;10.158;2023-03-19T07:46:55;41.42;;;30.58;;
5674;SDS011;2860;54.284;10.158;2023-03-19T07:49:21;38.20;;;28.90;;
5674;SDS011;2860;54.284;10.158;2023-03-19T07:51:47;34.83;;;27.60;;
5674;SDS011;2860;54.284;10.158;2023-03-19T07:54:12;32.45;;;24.35;;
5674;SDS011;2860;54.284;10.158;2023-03-19T07:56:38;28.05;;;23.98;;
5674;SDS011;2860;54.284;10.158;2023-03-19T07:59:03;27.70;;;23.45;;
5674;SDS011;2860;54.284;10.158;2023-03-19T08:01:29;28.30;;;22.60;;
5674;SDS011;2860;54.284;10.158;2023-03-19T08:03:55;26.27;;;22.40;;
5674;SDS011;2860;54.284;10.158;2023-03-19T08:06:20;21.55;;;18.70;;
5674;SDS011;2860;54.284;10.158;2023-03-19T08:08:46;20.65;;;18.45;;
5674;SDS011;2860;54.284;10.158;2023-03-19T08:11:11;17.10;;;15.43;;
5674;SDS011;2860;54.284;10.158;2023-03-19T08:13:37;17.70;;;15.65;;
5674;SDS011;2860;54.284;10.158;2023-03-19T08:16:02;18.17;;;16.42;;
5674;SDS011;2860;54.284;10.158;2023-03-19T08:18:28;15.30;;;13.85;;
5674;SDS011;2860;54.284;10.158;2023-03-19T08:20:53;16.10;;;14.60;;
5674;SDS011;2860;54.284;10.158;2023-03-19T08:23:19;16.10;;;14.60;;
5674;SDS011;2860;54.284;10.158;2023-03-19T08:25:45;15.30;;;13.93;;
5674;SDS011;2860;54.284;10.158;2023-03-19T08:28:10;16.38;;;13.82;;
5674;SDS011;2860;54.284;10.158;2023-03-19T08:30:36;16.60;;;14.90;;
5674;SDS011;2860;54.284;10.158;2023-03-19T08:33:02;16.27;;;14.88;;
5674;SDS011;2860;54.284;10.158;2023-03-19T08:35:28;15.98;;;14.57;;
5674;SDS011;2860;54.284;10.158;2023-03-19T08:37:54;14.90;;;13.60;;
5674;SDS011;2860;54.284;10.158;2023-03-19T08:40:20;15.90;;;14.45;;
5674;SDS011;2860;54.284;10.158;2023-03-19T08:42:46;17.58;;;15.88;;
5674;SDS011;2860;54.284;10.158;2023-03-19T08:45:12;15.48;;;14.25;;
5674;SDS011;2860;54.284;10.158;2023-03-19T08:47:39;16.00;;;14.50;;
5674;SDS011;2860;54.284;10.158;2023-03-19T08:50:06;13.80;;;12.43;;
5674;SDS011;2860;54.284;10.158;2023-03-19T08:52:32;12.52;;;11.52;;
5674;SDS011;2860;54.284;10.158;2023-03-19T08:54:57;12.68;;;11.57;;
5674;SDS011;2860;54.284;10.158;2023-03-19T08:57:23;12.35;;;11.35;;
5674;SDS011;2860;54.284;10.158;2023-03-19T08:59:49;11.18;;;10.27;;
5674;SDS011;2860;54.284;10.158;2023-03-19T09:02:16;13.35;;;12.13;;
5674;SDS011;2860;54.284;10.158;2023-03-19T09:04:42;13.30;;;12.15;;
5674;SDS011;2860;54.284;10.158;2023-03-19T09:07:08;12.75;;;11.45;;
5674;SDS011;2860;54.284;10.158;2023-03-19T09:09:39;13.20;;;11.88;;
5674;SDS011;2860;54.284;10.158;2023-03-19T09:12:06;12.70;;;11.77;;
5674;SDS011;2860;54.284;10.158;2023-03-19T09:14:33;12.70;;;11.57;;
5674;SDS011;2860;54.284;10.158;2023-03-19T09:16:59;13.32;;;12.13;;
5674;SDS011;2860;54.284;10.158;2023-03-19T09:19:25;13.20;;;12.07;;
5674;SDS011;2860;54.284;10.158;2023-03-19T09:21:50;12.50;;;11.50;;
5674;SDS011;2860;54.284;10.158;2023-03-19T09:24:16;12.18;;;11.18;;
5674;SDS011;2860;54.284;10.158;2023-03-19T09:26:43;12.00;;;10.93;;
5674;SDS011;2860;54.284;10.158;2023-03-19T09:29:09;12.25;;;11.32;;
5674;SDS011;2860;54.284;10.158;2023-03-19T09:31:35;12.30;;;11.10;;
5674;SDS011;2860;54.284;10.158;2023-03-19T09:34:01;11.52;;;10.65;;
5674;SDS011;2860;54.284;10.158;2023-03-19T09:36:26;10.75;;;9.90;;
5674;SDS011;2860;54.284;10.158;2023-03-19T09:38:52;10.77;;;10.00;;
5674;SDS011;2860;54.284;10.158;2023-03-19T09:44:56;9.93;;;8.93;;
5674;SDS011;2860;54.284;10.158;2023-03-19T09:49:36;8.95;;;8.45;;
5674;SDS011;2860;54.284;10.158;2023-03-19T09:54:49;8.30;;;7.85;;
5674;SDS011;2860;54.284;10.158;2023-03-19T09:57:16;8.68;;;8.07;;
5674;SDS011;2860;54.284;10.158;2023-03-19T09:59:43;8.73;;;8.10;;
5674;SDS011;2860;54.284;10.158;2023-03-19T10:02:31;7.30;;;6.75;;
5674;SDS011;2860;54.284;10.158;2023-03-19T10:05:18;8.52;;;7.65;;
5674;SDS011;2860;54.284;10.158;2023-03-19T10:13:34;9.25;;;8.43;;
5674;SDS011;2860;54.284;10.158;2023-03-19T10:16:18;7.63;;;6.97;;
5674;SDS011;2860;54.284;10.158;2023-03-19T10:18:48;8.25;;;7.57;;
5674;SDS011;2860;54.284;10.158;2023-03-19T10:21:21;8.48;;;7.78;;
5674;SDS011;2860;54.284;10.158;2023-03-19T10:24:00;7.53;;;7.00;;
5674;SDS011;2860;54.284;10.158;2023-03-19T10:26:31;7.72;;;7.22;;
5674;SDS011;2860;54.284;10.158;2023-03-19T10:29:12;7.22;;;6.78;;
5674;SDS011;2860;54.284;10.158;2023-03-19T10:34:20;4.95;;;4.75;;
5674;SDS011;2860;54.284;10.158;2023-03-19T10:36:59;8.07;;;5.32;;
5674;SDS011;2860;54.284;10.158;2023-03-19T10:39:28;4.72;;;4.63;;
5674;SDS011;2860;54.284;10.158;2023-03-19T10:42:12;5.07;;;4.68;;
5674;SDS011;2860;54.284;10.158;2023-03-19T10:45:04;4.30;;;4.10;;
5674;SDS011;2860;54.284;10.158;2023-03-19T10:47:38;3.45;;;3.13;;
5674;SDS011;2860;54.284;10.158;2023-03-19T10:50:05;3.53;;;3.40;;
5674;SDS011;2860;54.284;10.158;2023-03-19T10:52:34;3.90;;;3.80;;
5674;SDS011;2860;54.284;10.158;2023-03-19T10:55:02;3.80;;;3.60;;
5674;SDS011;2860;54.284;10.158;2023-03-19T10:57:36;3.55;;;3.35;;
5674;SDS011;2860;54.284;10.158;2023-03-19T11:00:23;3.70;;;3.50;;
5674;SDS011;2860;54.284;10.158;2023-03-19T11:02:53;3.10;;;2.97;;
5674;SDS011;2860;54.284;10.158;2023-03-19T11:07:47;4.32;;;3.13;;
5674;SDS011;2860;54.284;10.158;2023-03-19T11:10:15;2.60;;;2.60;;
5674;SDS011;2860;54.284;10.158;2023-03-19T11:12:41;3.60;;;3.50;;
5674;SDS011;2860;54.284;10.158;2023-03-19T11:15:22;3.33;;;3.15;;
5674;SDS011;2860;54.284;10.158;2023-03-19T11:17:56;2.83;;;2.83;;
5674;SDS011;2860;54.284;10.158;2023-03-19T11:20:34;2.92;;;2.83;;
5674;SDS011;2860;54.284;10.158;2023-03-19T11:23:03;3.63;;;3.33;;
5674;SDS011;2860;54.284;10.158;2023-03-19T11:25:37;3.65;;;3.42;;
5674;SDS011;2860;54.284;10.158;2023-03-19T11:28:10;3.97;;;3.88;;
5674;SDS011;2860;54.284;10.158;2023-03-19T11:33:17;3.80;;;3.70;;
5674;SDS011;2860;54.284;10.158;2023-03-19T11:44:28;3.53;;;3.42;;
5674;SDS011;2860;54.284;10.158;2023-03-19T11:47:14;3.63;;;3.53;;
5674;SDS011;2860;54.284;10.158;2023-03-19T11:50:18;4.15;;;3.95;;
5674;SDS011;2860;54.284;10.158;2023-03-19T11:53:51;4.18;;;4.07;;
5674;SDS011;2860;54.284;10.158;2023-03-19T11:59:15;4.00;;;3.80;;
5674;SDS011;2860;54.284;10.158;2023-03-19T12:05:20;4.45;;;4.18;;
5674;SDS011;2860;54.284;10.158;2023-03-19T12:11:05;4.32;;;4.15;;
5674;SDS011;2860;54.284;10.158;2023-03-19T12:16:39;5.30;;;5.10;;
5674;SDS011;2860;54.284;10.158;2023-03-19T12:27:54;5.35;;;5.03;;
5674;SDS011;2860;54.284;10.158;2023-03-19T12:30:29;5.53;;;5.03;;
5674;SDS011;2860;54.284;10.158;2023-03-19T12:35:53;5.90;;;5.53;;
5674;SDS011;2860;54.284;10.158;2023-03-19T12:38:22;6.03;;;5.60;;
5674;SDS011;2860;54.284;10.158;2023-03-19T12:43:33;6.20;;;5.72;;
5674;SDS011;2860;54.284;10.158;2023-03-19T12:46:15;5.30;;;5.00;;
5674;SDS011;2860;54.284;10.158;2023-03-19T12:49:32;5.95;;;5.75;;
5674;SDS011;2860;54.284;10.158;2023-03-19T12:51:37;5.72;;;5.32;;
5674;SDS011;2860;54.284;10.158;2023-03-19T12:54:25;6.35;;;6.00;;
5674;SDS011;2860;54.284;10.158;2023-03-19T12:57:02;7.07;;;6.35;;
5674;SDS011;2860;54.284;10.158;2023-03-19T13:02:35;6.72;;;6.22;;
5674;SDS011;2860;54.284;10.158;2023-03-19T13:08:07;6.28;;;5.97;;
5674;SDS011;2860;54.284;10.158;2023-03-19T13:10:38;6.45;;;6.03;;
5674;SDS011;2860;54.284;10.158;2023-03-19T13:13:11;7.05;;;6.32;;
5674;SDS011;2860;54.284;10.158;2023-03-19T13:15:52;7.28;;;6.78;;
5674;SDS011;2860;54.284;10.158;2023-03-19T13:21:35;7.38;;;6.78;;
5674;SDS011;2860;54.284;10.158;2023-03-19T13:26:57;6.22;;;5.93;;
5674;SDS011;2860;54.284;10.158;2023-03-19T13:29:25;6.60;;;6.20;;
5674;SDS011;2860;54.284;10.158;2023-03-19T13:31:58;7.35;;;6.55;;
5674;SDS011;2860;54.284;10.158;2023-03-19T13:34:32;6.88;;;6.47;;
5674;SDS011;2860;54.284;10.158;2023-03-19T13:37:00;7.35;;;6.68;;
5674;SDS011;2860;54.284;10.158;2023-03-19T13:39:38;7.68;;;7.22;;
5674;SDS011;2860;54.284;10.158;2023-03-19T13:42:22;6.93;;;6.63;;
5674;SDS011;2860;54.284;10.158;2023-03-19T13:47:46;8.02;;;7.55;;
5674;SDS011;2860;54.284;10.158;2023-03-19T13:52:48;7.05;;;6.65;;
5674;SDS011;2860;54.284;10.158;2023-03-19T13:57:58;6.55;;;5.90;;
5674;SDS011;2860;54.284;10.158;2023-03-19T14:01:01;7.72;;;6.40;;
5674;SDS011;2860;54.284;10.158;2023-03-19T14:03:30;7.38;;;6.97;;
5674;SDS011;2860;54.284;10.158;2023-03-19T14:05:58;8.13;;;7.43;;
5674;SDS011;2860;54.284;10.158;2023-03-19T14:08:25;7.63;;;7.07;;
5674;SDS011;2860;54.284;10.158;2023-03-19T14:10:56;8.68;;;8.07;;
5674;SDS011;2860;54.284;10.158;2023-03-19T14:13:33;8.02;;;7.55;;
5674;SDS011;2860;54.284;10.158;2023-03-19T14:16:08;8.25;;;7.85;;
5674;SDS011;2860;54.284;10.158;2023-03-19T14:18:41;8.95;;;8.18;;
5674;SDS011;2860;54.284;10.158;2023-03-19T14:21:14;9.10;;;8.40;;
5674;SDS011;2860;54.284;10.158;2023-03-19T14:23:41;8.73;;;8.02;;
5674;SDS011;2860;54.284;10.158;2023-03-19T14:28:54;11.10;;;10.13;;
5674;SDS011;2860;54.284;10.158;2023-03-19T14:31:47;10.30;;;9.60;;
5674;SDS011;2860;54.284;10.158;2023-03-19T14:39:33;9.77;;;9.18;;
5674;SDS011;2860;54.284;10.158;2023-03-19T14:42:05;10.50;;;9.38;;
5674;SDS011;2860;54.284;10.158;2023-03-19T14:45:05;8.82;;;8.23;;
5674;SDS011;2860;54.284;10.158;2023-03-19T14:47:56;9.88;;;9.07;;
5674;SDS011;2860;54.284;10.158;2023-03-19T14:53:51;10.38;;;9.50;;
5674;SDS011;2860;54.284;10.158;2023-03-19T14:56:20;9.63;;;8.82;;
5674;SDS011;2860;54.284;10.158;2023-03-19T14:58:55;10.20;;;9.45;;
5674;SDS011;2860;54.284;10.158;2023-03-19T15:01:24;9.80;;;9.18;;
5674;SDS011;2860;54.284;10.158;2023-03-19T15:03:54;9.82;;;9.30;;
5674;SDS011;2860;54.284;10.158;2023-03-19T15:06:24;10.30;;;9.63;;
5674;SDS011;2860;54.284;10.158;2023-03-19T15:08:54;10.45;;;9.75;;
5674;SDS011;2860;54.284;10.158;2023-03-19T15:11:36;11.32;;;10.45;;
5674;SDS011;2860;54.284;10.158;2023-03-19T15:14:08;10.65;;;9.88;;
5674;SDS011;2860;54.284;10.158;2023-03-19T15:16:41;12.05;;;10.80;;
5674;SDS011;2860;54.284;10.158;2023-03-19T15:19:23;12.45;;;11.30;;
5674;SDS011;2860;54.284;10.158;2023-03-19T15:22:02;12.57;;;11.48;;
5674;SDS011;2860;54.284;10.158;2023-03-19T15:24:48;12.30;;;11.40;;
5674;SDS011;2860;54.284;10.158;2023-03-19T15:29:46;12.10;;;11.20;;
5674;SDS011;2860;54.284;10.158;2023-03-19T15:32:12;12.75;;;11.68;;
5674;SDS011;2860;54.284;10.158;2023-03-19T15:34:55;15.18;;;13.02;;
5674;SDS011;2860;54.284;10.158;2023-03-19T15:37:21;14.65;;;13.55;;
5674;SDS011;2860;54.284;10.158;2023-03-19T15:39:48;14.18;;;12.90;;
5674;SDS011;2860;54.284;10.158;2023-03-19T15:42:16;15.63;;;14.13;;
5674;SDS011;2860;54.284;10.158;2023-03-19T15:44:54;16.05;;;14.57;;
5674;SDS011;2860;54.284;10.158;2023-03-19T15:47:34;16.58;;;14.85;;
5674;SDS011;2860;54.284;10.158;2023-03-19T15:52:32;16.90;;;15.45;;
5674;SDS011;2860;54.284;10.158;2023-03-19T15:55:00;17.38;;;15.80;;
5674;SDS011;2860;54.284;10.158;2023-03-19T15:57:27;15.75;;;14.30;;
5674;SDS011;2860;54.284;10.158;2023-03-19T15:59:53;16.02;;;14.45;;
5674;SDS011;2860;54.284;10.158;2023-03-19T16:02:30;16.52;;;15.02;;
5674;SDS011;2860;54.284;10.158;2023-03-19T16:04:57;17.25;;;15.55;;
5674;SDS011;2860;54.284;10.158;2023-03-19T16:09:56;17.02;;;15.55;;
5674;SDS011;2860;54.284;10.158;2023-03-19T16:17:49;14.82;;;13.52;;
5674;SDS011;2860;54.284;10.158;2023-03-19T16:20:15;19.00;;;17.25;;
5674;SDS011;2860;54.284;10.158;2023-03-19T16:22:42;17.23;;;15.70;;
5674;SDS011;2860;54.284;10.158;2023-03-19T16:25:16;17.95;;;16.10;;
5674;SDS011;2860;54.284;10.158;2023-03-19T16:27:43;18.50;;;16.67;;
5674;SDS011;2860;54.284;10.158;2023-03-19T16:30:28;18.40;;;16.75;;
5674;SDS011;2860;54.284;10.158;2023-03-19T16:33:04;18.98;;;17.10;;
5674;SDS011;2860;54.284;10.158;2023-03-19T16:35:31;19.20;;;17.52;;